createdAt,value
2018-07-20T00:01:12.562Z,100436.06
2018-07-20T00:03:41.976Z,100431.73
2018-07-20T00:06:10.736Z,100426.83
2018-07-20T00:08:39.519Z,100421.66
2018-07-20T00:11:08.993Z,100417.83
2018-07-20T00:13:37.837Z,100411.02
2018-07-20T00:16:07.608Z,100415.38
2018-07-20T00:18:37.110Z,100412.38
2018-07-20T00:21:05.995Z,100415.64
2018-07-20T00:23:34.796Z,100414.03
2018-07-20T00:26:03.795Z,100402.33
2018-07-20T00:28:32.747Z,100402.30
2018-07-20T00:31:01.896Z,100402.03
2018-07-20T00:33:31.031Z,100402.59
2018-07-20T00:35:59.984Z,100403.12
2018-07-20T00:38:28.793Z,100401.22
2018-07-20T00:40:57.651Z,100400.41
2018-07-20T00:43:27.663Z,100402.59
2018-07-20T00:45:56.486Z,100398.78
2018-07-20T00:48:25.222Z,100398.78
2018-07-20T00:50:54.085Z,100400.14
2018-07-20T00:53:23.291Z,100405.86
2018-07-20T00:55:52.572Z,100399.59
2018-07-20T00:58:21.350Z,100393.32
2018-07-20T01:00:50.321Z,100395.25
2018-07-20T01:03:19.692Z,100396.33
2018-07-20T01:05:48.489Z,100396.06
2018-07-20T01:08:17.319Z,100388.42
2018-07-20T01:10:46.654Z,100398.23
2018-07-20T01:13:15.440Z,100389.27
2018-07-20T01:15:44.691Z,100396.61
2018-07-20T01:18:14.058Z,100402.87
2018-07-20T01:20:42.865Z,100399.63
2018-07-20T01:23:12.331Z,100394.45
2018-07-20T01:25:41.153Z,100395.27
2018-07-20T01:28:09.927Z,100389.55
2018-07-20T01:30:38.744Z,100389.52
2018-07-20T01:33:07.615Z,100391.42
2018-07-20T01:35:36.576Z,100389.00
2018-07-20T01:38:05.396Z,100388.45
2018-07-20T01:40:34.185Z,100392.80
2018-07-20T01:43:03.834Z,100395.78
2018-07-20T01:45:32.791Z,100396.36
2018-07-20T01:48:01.899Z,100396.32
2018-07-20T01:50:31.010Z,100394.70
2018-07-20T01:53:01.112Z,100397.42
2018-07-20T01:55:30.775Z,100404.48
2018-07-20T01:57:59.543Z,100397.67
2018-07-20T02:00:28.338Z,100398.50
2018-07-20T02:02:58.465Z,100396.31
2018-07-20T02:05:27.317Z,100398.24
2018-07-20T02:07:56.148Z,100392.53
2018-07-20T02:10:25.637Z,100390.07
2018-07-20T02:12:54.444Z,100394.42
2018-07-20T02:15:23.879Z,100392.23
2018-07-20T02:17:53.210Z,100396.56
2018-07-20T02:20:21.967Z,100394.67
2018-07-20T02:22:51.131Z,100396.84
2018-07-20T02:25:19.882Z,100394.92
2018-07-20T02:27:48.641Z,100396.28
2018-07-20T02:30:17.444Z,100396.02
2018-07-20T02:32:46.183Z,100390.02
2018-07-20T02:35:15.047Z,100387.83
2018-07-20T02:37:43.960Z,100383.49
2018-07-20T02:40:13.512Z,100385.11
2018-07-20T02:42:42.278Z,100379.10
2018-07-20T02:45:11.036Z,100382.91
2018-07-20T02:47:40.198Z,100379.36
2018-07-20T02:50:09.039Z,100377.98
2018-07-20T02:52:37.919Z,100376.63
2018-07-20T02:55:07.601Z,100378.48
2018-07-20T02:57:36.776Z,100378.75
2018-07-20T03:00:05.546Z,100377.65
2018-07-20T03:02:34.771Z,100380.09
2018-07-20T03:05:03.632Z,100376.81
2018-07-20T03:07:34.089Z,100382.23
2018-07-20T03:10:04.026Z,100380.34
2018-07-20T03:12:33.584Z,100381.68
2018-07-20T03:15:02.597Z,100380.88
2018-07-20T03:17:34.482Z,100384.16
2018-07-20T03:20:03.967Z,100382.52
2018-07-20T03:22:33.475Z,100377.93
2018-07-20T03:25:02.487Z,100381.80
2018-07-20T03:27:32.073Z,100378.58
2018-07-20T03:30:01.243Z,100374.82
2018-07-20T03:32:30.358Z,100370.75
2018-07-20T03:34:59.481Z,100372.41
2018-07-20T03:37:28.611Z,100375.91
2018-07-20T03:39:58.596Z,100377.81
2018-07-20T03:42:28.111Z,100375.84
2018-07-20T03:44:56.860Z,100385.09
2018-07-20T03:47:25.719Z,100384.17
2018-07-20T03:49:54.484Z,100385.66
2018-07-20T03:52:23.520Z,100385.01
2018-07-20T03:54:52.442Z,100388.42
2018-07-20T03:57:22.625Z,100386.39
2018-07-20T03:59:51.363Z,100380.48
2018-07-20T04:02:20.818Z,100375.19
2018-07-20T04:04:49.646Z,100377.63
2018-07-20T04:07:18.390Z,100378.10
2018-07-20T04:09:47.825Z,100377.19
2018-07-20T04:12:16.683Z,100378.52
2018-07-20T04:14:45.452Z,100382.58
2018-07-20T04:17:14.882Z,100377.36
2018-07-20T04:19:44.379Z,100375.08
2018-07-20T04:22:14.082Z,100372.72
2018-07-20T04:24:42.955Z,100373.37
2018-07-20T04:27:11.729Z,100369.30
2018-07-20T04:29:40.560Z,100368.52
2018-07-20T04:32:09.346Z,100366.61
2018-07-20T04:34:38.421Z,100371.20
2018-07-20T04:37:07.208Z,100367.39
2018-07-20T04:39:36.675Z,100367.43
2018-07-20T04:42:05.509Z,100371.55
2018-07-20T04:44:34.283Z,100368.01
2018-07-20T04:47:03.256Z,100370.73
2018-07-20T04:49:32.803Z,100366.94
2018-07-20T04:52:03.148Z,100368.58
2018-07-20T04:54:33.208Z,100368.84
2018-07-20T04:57:02.971Z,100370.77
2018-07-20T04:59:32.761Z,100369.68
2018-07-20T05:02:03.204Z,100371.59
2018-07-20T05:04:32.798Z,100367.52
2018-07-20T05:07:01.953Z,100367.76
2018-07-20T05:09:32.646Z,100370.76
2018-07-20T05:12:03.187Z,100373.20
2018-07-20T05:14:32.419Z,100370.73
2018-07-20T05:17:02.563Z,100370.73
2018-07-20T05:19:33.092Z,100362.25
2018-07-20T05:22:02.455Z,100371.28
2018-07-20T05:24:32.624Z,100370.45
2018-07-20T05:27:02.470Z,100369.91
2018-07-20T05:29:31.567Z,100378.59
2018-07-20T05:32:01.501Z,100376.93
2018-07-20T05:34:31.682Z,100383.17
2018-07-20T05:37:00.579Z,100388.58
2018-07-20T05:39:30.987Z,100384.77
2018-07-20T05:41:59.963Z,100382.53
2018-07-20T05:44:28.733Z,100376.52
2018-07-20T05:46:57.607Z,100377.81
2018-07-20T05:49:26.326Z,100376.66
2018-07-20T05:51:55.215Z,100380.97
2018-07-20T05:54:24.080Z,100378.23
2018-07-20T05:56:53.726Z,100377.73
2018-07-20T05:59:22.463Z,100376.31
2018-07-20T06:01:52.288Z,100373.59
2018-07-20T06:04:21.041Z,100370.58
2018-07-20T06:06:49.843Z,100375.78
2018-07-20T06:09:18.607Z,100368.89
2018-07-20T06:11:48.103Z,100366.23
2018-07-20T06:14:16.859Z,100360.09
2018-07-20T06:16:45.711Z,100360.55
2018-07-20T06:19:14.993Z,100350.58
2018-07-20T06:21:43.777Z,100351.09
2018-07-20T06:24:13.147Z,100349.09
2018-07-20T06:26:41.888Z,100335.39
2018-07-20T06:29:11.685Z,100338.80
2018-07-20T06:31:40.441Z,100339.45
2018-07-20T06:34:09.155Z,100339.45
2018-07-20T06:36:37.949Z,100345.13
2018-07-20T06:39:09.462Z,100344.81
2018-07-20T06:41:38.273Z,100341.50
2018-07-20T06:44:07.051Z,100338.08
2018-07-20T06:46:36.399Z,100344.26
2018-07-20T06:49:05.410Z,100340.33
2018-07-20T06:51:34.678Z,100342.20
2018-07-20T06:54:03.581Z,100334.39
2018-07-20T06:56:33.624Z,100336.25
2018-07-20T06:59:02.541Z,100329.90
2018-07-20T07:01:33.251Z,100334.12
2018-07-20T07:04:03.578Z,100328.91
2018-07-20T07:06:33.234Z,100330.66
2018-07-20T07:09:02.411Z,100332.30
2018-07-20T07:11:32.889Z,100330.41
2018-07-20T07:14:03.662Z,100328.00
2018-07-20T07:16:33.401Z,100334.25
2018-07-20T07:19:02.963Z,100331.66
2018-07-20T07:21:32.416Z,100330.36
2018-07-20T07:24:02.009Z,100330.83
2018-07-20T07:26:31.460Z,100330.59
2018-07-20T07:29:01.279Z,100332.12
2018-07-20T07:31:30.425Z,100331.48
2018-07-20T07:33:59.427Z,100324.78
2018-07-20T07:36:28.262Z,100322.66
2018-07-20T07:38:57.770Z,100320.98
2018-07-20T07:41:26.527Z,100321.75
2018-07-20T07:43:55.340Z,100313.77
2018-07-20T07:46:24.156Z,100325.63
2018-07-20T07:48:52.930Z,100323.94
2018-07-20T07:51:21.756Z,100324.33
2018-07-20T07:53:50.576Z,100316.77
2018-07-20T07:56:19.896Z,100320.01
2018-07-20T07:58:48.739Z,100322.60
2018-07-20T08:01:17.480Z,100324.28
2018-07-20T08:03:46.599Z,100319.31
2018-07-20T08:06:15.320Z,100317.94
2018-07-20T08:08:44.473Z,100315.34
2018-07-20T08:11:13.742Z,100310.85
2018-07-20T08:13:42.567Z,100311.44
2018-07-20T08:16:11.285Z,100311.67
2018-07-20T08:18:40.615Z,100305.22
2018-07-20T08:21:09.387Z,100306.71
2018-07-20T08:23:38.790Z,100305.22
2018-07-20T08:26:07.533Z,100306.66
2018-07-20T08:28:37.363Z,100304.48
2018-07-20T08:31:06.099Z,100307.64
2018-07-20T08:33:34.845Z,100303.06
2018-07-20T08:36:03.779Z,100303.88
2018-07-20T08:38:33.243Z,100302.06
2018-07-20T08:41:02.255Z,100300.78
2018-07-20T08:43:31.203Z,100294.47
2018-07-20T08:46:00.372Z,100295.91
2018-07-20T08:48:29.270Z,100299.70
2018-07-20T08:50:58.462Z,100297.01
2018-07-20T08:53:27.247Z,100292.52
2018-07-20T08:55:56.925Z,100285.08
2018-07-20T08:58:25.818Z,100284.09
2018-07-20T09:00:54.739Z,100283.58
2018-07-20T09:03:24.016Z,100281.50
2018-07-20T09:05:52.899Z,100284.57
2018-07-20T09:08:21.688Z,100286.58
2018-07-20T09:10:51.245Z,100279.39
2018-07-20T09:13:19.955Z,100282.52
2018-07-20T09:15:48.749Z,100283.33
2018-07-20T09:18:18.841Z,100286.57
2018-07-20T09:20:47.717Z,100278.55
2018-07-20T09:23:17.134Z,100273.30
2018-07-20T09:25:46.080Z,100273.36
2018-07-20T09:28:15.489Z,100269.89
2018-07-20T09:30:44.551Z,100269.14
2018-07-20T09:33:13.299Z,100257.82
2018-07-20T09:35:42.097Z,100262.82
2018-07-20T09:38:11.658Z,100259.50
2018-07-20T09:40:40.447Z,100259.42
2018-07-20T09:43:09.296Z,100256.16
2018-07-20T09:45:38.121Z,100246.95
2018-07-20T09:48:06.911Z,100250.59
2018-07-20T09:50:35.788Z,100237.06
2018-07-20T09:53:04.640Z,100237.22
2018-07-20T09:55:34.359Z,100243.22
2018-07-20T09:58:03.264Z,100240.03
2018-07-20T10:00:38.685Z,100239.91
2018-07-20T10:03:08.175Z,100238.36
2018-07-20T10:05:36.917Z,100234.31
2018-07-20T10:08:05.786Z,100232.73
2018-07-20T10:10:35.454Z,100229.29
2018-07-20T10:13:04.459Z,100232.20
2018-07-20T10:15:33.377Z,100234.02
2018-07-20T10:18:03.095Z,100220.20
2018-07-20T10:20:32.354Z,100219.72
2018-07-20T10:23:02.268Z,100220.72
2018-07-20T10:25:31.667Z,100218.25
2018-07-20T10:28:01.637Z,100216.87
2018-07-20T10:30:30.843Z,100213.67
2018-07-20T10:32:59.899Z,100225.75
2018-07-20T10:35:28.767Z,100216.78
2018-07-20T10:37:57.612Z,100218.97
2018-07-20T10:40:28.116Z,100220.59
2018-07-20T10:42:58.899Z,100222.92
2018-07-20T10:45:27.766Z,100218.98
2018-07-20T10:47:56.661Z,100223.21
2018-07-20T10:50:25.431Z,100215.86
2018-07-20T10:52:54.433Z,100213.91
2018-07-20T10:55:24.169Z,100210.97
2018-07-20T10:57:52.952Z,100206.41
2018-07-20T11:00:21.692Z,100202.55
2018-07-20T11:02:50.893Z,100200.58
2018-07-20T11:05:19.688Z,100196.30
2018-07-20T11:07:48.435Z,100194.64
2018-07-20T11:10:17.960Z,100202.41
2018-07-20T11:12:46.734Z,100195.08
2018-07-20T11:15:15.498Z,100191.91
2018-07-20T11:17:45.481Z,100185.25
2018-07-20T11:20:14.386Z,100192.35
2018-07-20T11:22:43.738Z,100186.92
2018-07-20T11:25:12.536Z,100184.16
2018-07-20T11:27:41.799Z,100178.74
2018-07-20T11:30:10.563Z,100175.73
2018-07-20T11:32:39.556Z,100170.22
2018-07-20T11:35:08.341Z,100179.45
2018-07-20T11:37:37.083Z,100178.64
2018-07-20T11:40:06.510Z,100173.16
2018-07-20T11:42:35.243Z,100161.25
2018-07-20T11:45:04.120Z,100178.53
2018-07-20T11:47:33.249Z,100152.52
2018-07-20T11:50:02.502Z,100161.16
2018-07-20T11:52:32.007Z,100164.19
2018-07-20T11:55:01.651Z,100160.70
2018-07-20T11:57:31.788Z,100163.23
2018-07-20T12:00:01.828Z,100156.55
2018-07-20T12:02:31.609Z,100154.05
2018-07-20T12:05:00.486Z,100139.17
2018-07-20T12:07:29.377Z,100137.69
2018-07-20T12:09:58.801Z,100147.12
2018-07-20T12:12:27.593Z,100132.16
2018-07-20T12:14:56.398Z,100131.94
2018-07-20T12:17:25.218Z,100124.20
2018-07-20T12:19:55.861Z,100128.96
2018-07-20T12:22:25.490Z,100131.73
2018-07-20T12:24:54.272Z,100121.81
2018-07-20T12:27:23.082Z,100132.99
2018-07-20T12:29:52.372Z,100132.85
2018-07-20T12:32:21.134Z,100137.92
2018-07-20T12:34:50.670Z,100142.42
2018-07-20T12:37:19.453Z,100132.02
2018-07-20T12:39:48.931Z,100128.78
2018-07-20T12:42:17.701Z,100123.62
2018-07-20T12:44:47.541Z,100132.83
2018-07-20T12:47:16.563Z,100120.97
2018-07-20T12:49:45.411Z,100123.02
2018-07-20T12:52:14.373Z,100118.92
2018-07-20T12:54:43.120Z,100127.76
2018-07-20T12:57:12.517Z,100112.95
2018-07-20T12:59:41.310Z,100112.99
2018-07-20T13:02:11.186Z,100105.08
2018-07-20T13:04:39.936Z,100104.59
2018-07-20T13:07:08.668Z,100102.53
2018-07-20T13:09:38.174Z,100104.82
2018-07-20T13:12:07.213Z,100100.69
2018-07-20T13:14:35.871Z,100096.59
2018-07-20T13:17:04.627Z,100086.95
2018-07-20T13:19:35.072Z,100093.39
2018-07-20T13:22:04.099Z,100090.70
2018-07-20T13:24:34.115Z,100086.12
2018-07-20T13:27:03.698Z,100087.63
2018-07-20T13:29:33.142Z,100090.88
2018-07-20T13:32:02.319Z,100091.94
2018-07-20T13:34:32.227Z,100088.75
2018-07-20T13:37:01.884Z,100071.83
2018-07-20T13:39:31.894Z,100085.28
2018-07-20T13:42:00.926Z,100089.84
2018-07-20T13:44:29.983Z,100082.92
2018-07-20T13:46:58.831Z,100084.25
2018-07-20T13:49:27.597Z,100090.98
2018-07-20T13:51:56.498Z,100094.80
2018-07-20T13:54:25.354Z,100089.69
2018-07-20T13:56:54.844Z,100101.34
2018-07-20T13:59:23.568Z,100094.19
2018-07-20T14:01:53.053Z,100095.36
2018-07-20T14:04:21.808Z,100095.50
2018-07-20T14:06:50.552Z,100092.93
2018-07-20T14:09:19.374Z,100087.27
2018-07-20T14:11:48.864Z,100089.59
2018-07-20T14:14:17.711Z,100090.76
2018-07-20T14:16:46.512Z,100092.92
2018-07-20T14:19:16.157Z,100092.79
2018-07-20T14:21:45.110Z,100091.98
2018-07-20T14:24:14.453Z,100080.84
2018-07-20T14:26:43.243Z,100080.06
2018-07-20T14:29:12.576Z,100084.22
2018-07-20T14:31:41.318Z,100079.80
2018-07-20T14:34:10.075Z,100061.02
2018-07-20T14:36:38.877Z,100078.55
2018-07-20T14:39:12.233Z,100064.14
2018-07-20T14:41:42.328Z,100065.17
2018-07-20T14:44:11.134Z,100064.69
2018-07-20T14:46:39.908Z,100050.64
2018-07-20T14:49:08.770Z,100055.88
2018-07-20T14:51:37.577Z,100058.48
2018-07-20T14:54:06.467Z,100042.77
2018-07-20T14:56:35.980Z,100040.73
2018-07-20T14:59:04.888Z,100042.63
2018-07-20T15:01:34.435Z,100046.63
2018-07-20T15:04:03.356Z,100037.95
2018-07-20T15:06:32.464Z,100034.95
2018-07-20T15:09:01.640Z,100051.33
2018-07-20T15:11:31.266Z,100040.11
2018-07-20T15:14:00.372Z,100054.59
2018-07-20T15:16:29.357Z,100057.39
2018-07-20T15:18:58.833Z,100058.08
2018-07-20T15:21:27.603Z,100061.63
2018-07-20T15:23:57.422Z,100069.94
2018-07-20T15:26:26.198Z,100054.59
2018-07-20T15:28:55.780Z,100070.75
2018-07-20T15:31:24.593Z,100070.87
2018-07-20T15:33:53.431Z,100073.06
2018-07-20T15:36:22.219Z,100075.69
2018-07-20T15:38:52.003Z,100069.97
2018-07-20T15:41:21.402Z,100076.48
2018-07-20T15:43:50.199Z,100070.67
2018-07-20T15:46:19.112Z,100077.75
2018-07-20T15:48:47.800Z,100069.50
2018-07-20T15:51:16.846Z,100079.31
2018-07-20T15:53:45.700Z,100078.73
2018-07-20T15:56:15.087Z,100079.07
2018-07-20T15:58:43.922Z,100078.13
2018-07-20T16:01:12.724Z,100071.27
2018-07-20T16:03:42.123Z,100068.59
2018-07-20T16:06:10.914Z,100062.40
2018-07-20T16:08:39.652Z,100058.73
2018-07-20T16:11:09.765Z,100053.22
2018-07-20T16:13:38.496Z,100055.79
2018-07-20T16:16:07.311Z,100054.23
2018-07-20T16:18:36.883Z,100051.99
2018-07-20T16:21:05.999Z,100049.99
2018-07-20T16:23:35.363Z,100054.61
2018-07-20T16:26:04.268Z,100057.59
2018-07-20T16:28:33.815Z,100058.28
2018-07-20T16:31:03.139Z,100060.38
2018-07-20T16:33:32.391Z,100060.79
2018-07-20T16:36:01.411Z,100062.98
2018-07-20T16:38:30.920Z,100059.18
2018-07-20T16:40:59.967Z,100061.47
2018-07-20T16:44:31.997Z,100056.30
2018-07-20T16:47:00.978Z,100050.45
2018-07-20T16:49:29.907Z,100060.45
2018-07-20T16:51:58.769Z,100058.42
2018-07-20T16:54:27.511Z,100054.52
2018-07-20T16:56:56.875Z,100052.99
2018-07-20T16:59:25.624Z,100056.17
2018-07-20T17:01:55.569Z,100056.09
2018-07-20T17:04:24.371Z,100059.89
2018-07-20T17:06:53.204Z,100060.17
2018-07-20T17:09:22.143Z,100051.45
2018-07-20T17:11:51.302Z,100050.92
2018-07-20T17:14:20.115Z,100050.44
2018-07-20T17:16:48.903Z,100053.16
2018-07-20T17:19:18.540Z,100048.24
2018-07-20T17:21:47.363Z,100051.08
2018-07-20T17:24:16.726Z,100043.02
2018-07-20T17:26:45.483Z,100050.05
2018-07-20T17:29:15.131Z,100044.23
2018-07-20T17:31:43.927Z,100042.39
2018-07-20T17:34:12.776Z,100043.31
2018-07-20T17:36:41.629Z,100045.04
2018-07-20T17:39:12.693Z,100040.19
2018-07-20T17:41:41.676Z,100041.86
2018-07-20T17:44:10.895Z,100035.55
2018-07-20T17:46:39.678Z,100029.45
2018-07-20T17:49:08.509Z,100034.41
2018-07-20T17:51:37.361Z,100035.36
2018-07-20T17:54:06.187Z,100034.47
2018-07-20T17:56:35.759Z,100039.13
2018-07-20T17:59:04.584Z,100040.91
2018-07-20T18:01:34.372Z,100044.57
2018-07-20T18:04:03.583Z,100050.71
2018-07-20T18:06:32.628Z,100046.59
2018-07-20T18:09:01.594Z,100044.38
2018-07-20T18:11:31.450Z,100050.09
2018-07-20T18:14:00.405Z,100048.45
2018-07-20T18:16:29.228Z,100050.64
2018-07-20T18:18:58.819Z,100049.03
2018-07-20T18:21:27.955Z,100047.98
2018-07-20T18:23:57.208Z,100047.55
2018-07-20T18:26:26.009Z,100039.66
2018-07-20T18:28:55.723Z,100036.77
2018-07-20T18:31:24.595Z,100037.71
2018-07-20T18:33:53.402Z,100043.82
2018-07-20T18:36:22.167Z,100042.20
2018-07-20T18:38:51.482Z,100043.02
2018-07-20T18:41:20.288Z,100033.58
2018-07-20T18:43:49.050Z,100043.02
2018-07-20T18:46:17.878Z,100034.33
2018-07-20T18:48:46.647Z,100040.53
2018-07-20T18:51:15.574Z,100044.31
2018-07-20T18:53:44.346Z,100043.81
2018-07-20T18:56:14.030Z,100045.33
2018-07-20T18:58:42.817Z,100045.38
2018-07-20T19:01:11.567Z,100052.92
2018-07-20T19:03:41.049Z,100044.35
2018-07-20T19:06:09.884Z,100053.85
2018-07-20T19:08:38.700Z,100051.11
2018-07-20T19:11:08.837Z,100050.78
2018-07-20T19:13:37.599Z,100050.45
2018-07-20T19:16:06.409Z,100051.70
2018-07-20T19:18:35.914Z,100052.89
2018-07-20T19:21:04.657Z,100050.96
2018-07-20T19:23:34.198Z,100053.11
2018-07-20T19:26:03.175Z,100046.63
2018-07-20T19:28:33.307Z,100052.80
2018-07-20T19:31:02.295Z,100047.94
2018-07-20T19:33:31.460Z,100042.62
2018-07-20T19:36:00.927Z,100042.55
2018-07-20T19:38:30.826Z,100043.94
2018-07-20T19:40:59.759Z,100040.41
2018-07-20T19:43:28.558Z,100035.34
2018-07-20T19:45:57.380Z,100041.72
2018-07-20T19:48:26.200Z,100036.32
2018-07-20T19:50:55.039Z,100043.86
2018-07-20T19:53:23.868Z,100043.98
2018-07-20T19:55:53.423Z,100039.95
2018-07-20T19:58:22.165Z,100050.45
2018-07-20T20:00:50.949Z,100050.52
2018-07-20T20:03:20.315Z,100051.68
2018-07-20T20:05:49.116Z,100060.23
2018-07-20T20:08:17.989Z,100058.13
2018-07-20T20:10:47.410Z,100056.67
2018-07-20T20:13:16.247Z,100059.37
2018-07-20T20:15:45.081Z,100066.70
2018-07-20T20:18:14.547Z,100067.08
2018-07-20T20:20:43.340Z,100065.61
2018-07-20T20:23:13.389Z,100065.55
2018-07-20T20:25:42.290Z,100072.26
2018-07-20T20:28:11.549Z,100073.50
2018-07-20T20:30:40.307Z,100073.34
2018-07-20T20:33:09.082Z,100069.19
2018-07-20T20:35:37.885Z,100073.11
2018-07-20T20:38:06.739Z,100074.01
2018-07-20T20:40:36.222Z,100072.13
2018-07-20T20:43:05.089Z,100071.38
2018-07-20T20:45:33.873Z,100068.14
2018-07-20T20:48:02.823Z,100070.69
2018-07-20T20:50:31.954Z,100066.97
2018-07-20T20:53:01.397Z,100067.28
2018-07-20T20:55:32.573Z,100068.77
2018-07-20T20:58:01.517Z,100067.95
2018-07-20T21:00:30.455Z,100080.84
2018-07-20T21:03:00.314Z,100073.14
2018-07-20T21:05:29.542Z,100076.67
2018-07-20T21:07:58.324Z,100073.02
2018-07-20T21:10:27.946Z,100072.84
2018-07-20T21:12:56.726Z,100067.98
2018-07-20T21:15:25.523Z,100062.05
2018-07-20T21:17:55.106Z,100064.88
2018-07-20T21:20:23.854Z,100066.08
2018-07-20T21:22:53.407Z,100070.74
2018-07-20T21:25:22.162Z,100070.53
2018-07-20T21:27:51.800Z,100067.59
2018-07-20T21:30:20.533Z,100072.64
2018-07-20T21:32:49.286Z,100074.16
2018-07-20T21:35:18.132Z,100081.34
2018-07-20T21:37:46.881Z,100077.52
2018-07-20T21:40:16.979Z,100075.02
2018-07-20T21:42:45.756Z,100077.67
2018-07-20T21:45:14.561Z,100080.33
2018-07-20T21:47:43.339Z,100081.81
2018-07-20T21:50:12.131Z,100078.34
2018-07-20T21:52:41.039Z,100076.30
2018-07-20T21:55:10.787Z,100079.96
2018-07-20T21:57:39.568Z,100075.48
2018-07-20T22:00:14.408Z,100082.15
2018-07-20T22:02:44.008Z,100084.44
2018-07-20T22:05:12.828Z,100087.75
2018-07-20T22:07:41.545Z,100089.73
2018-07-20T22:10:11.157Z,100087.87
2018-07-20T22:12:39.902Z,100086.80
2018-07-20T22:15:09.389Z,100084.66
2018-07-20T22:17:39.351Z,100077.56
2018-07-20T22:20:09.267Z,100094.28
2018-07-20T22:22:38.749Z,100088.59
2018-07-20T22:25:07.842Z,100089.98
2018-07-20T22:27:37.555Z,100083.16
2018-07-20T22:30:09.009Z,100088.62
2018-07-20T22:32:37.901Z,100097.13
2018-07-20T22:35:07.047Z,100096.41
2018-07-20T22:37:35.864Z,100097.02
2018-07-20T22:40:06.026Z,100101.75
2018-07-20T22:42:34.924Z,100099.66
2018-07-20T22:45:04.065Z,100107.38
2018-07-20T22:47:33.855Z,100103.36
2018-07-20T22:50:03.713Z,100098.80
2018-07-20T22:52:33.239Z,100096.43
2018-07-20T22:55:03.055Z,100099.79
2018-07-20T22:57:33.886Z,100098.28
2018-07-20T23:00:04.030Z,100106.22
2018-07-20T23:02:34.058Z,100102.23
2018-07-20T23:05:03.339Z,100110.46
2018-07-20T23:07:32.442Z,100107.80
2018-07-20T23:10:02.694Z,100107.27
2018-07-20T23:12:34.814Z,100107.86
2018-07-20T23:15:05.357Z,100107.66
2018-07-20T23:17:34.171Z,100106.63
2018-07-20T23:20:03.623Z,100104.55
2018-07-20T23:22:34.086Z,100105.68
2018-07-20T23:25:04.056Z,100108.77
2018-07-20T23:27:33.227Z,100115.08
2018-07-20T23:30:05.743Z,100112.09
2018-07-20T23:32:34.530Z,100109.72
2018-07-20T23:35:03.919Z,100113.02
2018-07-20T23:37:33.862Z,100117.98
2018-07-20T23:40:03.591Z,100114.78
2018-07-20T23:42:33.064Z,100111.80
2018-07-20T23:45:03.170Z,100116.70
2018-07-20T23:47:32.382Z,100111.27
2018-07-20T23:50:02.415Z,100111.31
2018-07-20T23:52:31.904Z,100115.13
2018-07-20T23:55:01.851Z,100111.34
2018-07-20T23:57:31.631Z,100111.34
